createdAt,value
2018-12-22T00:00:46.722Z,0.63
2018-12-22T00:03:14.252Z,0.90
2018-12-22T00:05:41.763Z,1.60
2018-12-22T00:08:12.999Z,0.63
2018-12-22T00:10:40.532Z,1.27
2018-12-22T00:13:07.992Z,1.13
2018-12-22T00:15:39.213Z,1.20
2018-12-22T00:18:16.504Z,1.30
2018-12-22T00:20:44.892Z,0.77
2018-12-22T00:23:13.323Z,0.50
2018-12-22T00:25:41.407Z,0.70
2018-12-22T00:28:08.934Z,1.50
2018-12-22T00:30:36.441Z,0.90
2018-12-22T00:33:04.026Z,1.17
2018-12-22T00:35:39.192Z,0.90
2018-12-22T00:38:07.718Z,1.47
2018-12-22T00:40:35.368Z,0.63
2018-12-22T00:43:02.830Z,0.90
2018-12-22T00:45:30.343Z,1.10
2018-12-22T00:48:04.484Z,1.33
2018-12-22T00:50:41.846Z,0.90
2018-12-22T00:53:09.432Z,1.43
2018-12-22T00:55:37.923Z,2.00
2018-12-22T00:58:05.443Z,1.63
2018-12-22T01:00:32.918Z,1.27
2018-12-22T01:03:00.418Z,1.60
2018-12-22T01:05:27.915Z,1.80
2018-12-22T01:07:55.620Z,1.93
2018-12-22T01:10:24.205Z,1.37
2018-12-22T01:12:51.747Z,1.80
2018-12-22T01:15:19.441Z,1.17
2018-12-22T01:17:46.991Z,1.37
2018-12-22T01:20:14.545Z,1.30
2018-12-22T01:22:42.120Z,1.10
2018-12-22T01:25:09.730Z,0.80
2018-12-22T01:27:49.861Z,1.13
2018-12-22T01:30:17.668Z,0.70
2018-12-22T01:32:45.308Z,0.50
2018-12-22T01:35:14.466Z,0.63
2018-12-22T01:37:41.965Z,0.50
2018-12-22T01:40:09.500Z,0.40
2018-12-22T01:42:37.267Z,0.60
2018-12-22T01:45:05.428Z,0.40
2018-12-22T01:47:33.016Z,0.60
2018-12-22T01:50:14.986Z,0.40
2018-12-22T01:52:42.572Z,0.67
2018-12-22T01:55:10.087Z,1.00
2018-12-22T01:57:37.651Z,1.10
2018-12-22T02:00:07.059Z,0.70
2018-12-22T02:02:46.839Z,0.80
2018-12-22T02:05:14.438Z,0.80
2018-12-22T02:07:42.039Z,1.37
2018-12-22T02:10:09.626Z,0.80
2018-12-22T02:12:37.079Z,0.87
2018-12-22T02:15:05.293Z,0.80
2018-12-22T02:17:32.754Z,0.60
2018-12-22T02:20:00.182Z,0.40
2018-12-22T02:22:27.662Z,0.50
2018-12-22T02:24:55.121Z,0.57
2018-12-22T02:27:22.670Z,0.60
2018-12-22T02:29:50.199Z,0.60
2018-12-22T02:32:18.414Z,0.77
2018-12-22T02:34:46.118Z,0.83
2018-12-22T02:37:13.577Z,0.83
2018-12-22T02:39:41.054Z,0.70
2018-12-22T02:42:08.581Z,0.87
2018-12-22T02:44:36.147Z,1.30
2018-12-22T02:47:03.688Z,0.77
2018-12-22T02:49:31.204Z,1.00
2018-12-22T02:51:58.695Z,1.20
2018-12-22T02:54:26.308Z,1.03
2018-12-22T02:56:59.581Z,0.60
2018-12-22T02:59:33.561Z,0.30
2018-12-22T03:02:07.117Z,0.30
2018-12-22T03:04:41.670Z,0.50
2018-12-22T03:10:08.603Z,0.70
2018-12-22T03:12:36.099Z,0.57
2018-12-22T03:15:04.156Z,0.67
2018-12-22T03:17:31.619Z,0.37
2018-12-22T03:19:59.291Z,0.30
2018-12-22T03:22:26.785Z,0.50
2018-12-22T03:24:54.293Z,0.57
2018-12-22T03:27:21.726Z,0.30
2018-12-22T03:29:49.185Z,0.67
2018-12-22T03:32:16.655Z,0.90
2018-12-22T03:34:44.115Z,0.57
2018-12-22T03:37:11.590Z,0.27
2018-12-22T03:39:39.056Z,0.30
2018-12-22T03:42:06.926Z,0.60
2018-12-22T03:44:34.482Z,0.63
2018-12-22T03:47:01.899Z,0.40
2018-12-22T03:49:29.372Z,0.30
2018-12-22T03:51:56.858Z,0.60
2018-12-22T03:54:24.356Z,0.60
2018-12-22T03:56:51.888Z,0.40
2018-12-22T03:59:24.751Z,0.63
2018-12-22T04:04:48.811Z,0.47
2018-12-22T04:07:16.278Z,0.47
2018-12-22T04:09:49.999Z,0.53
2018-12-22T04:12:17.608Z,0.57
2018-12-22T04:14:45.352Z,0.30
2018-12-22T04:17:23.161Z,0.47
2018-12-22T04:19:50.630Z,0.40
2018-12-22T04:22:18.318Z,0.73
2018-12-22T04:27:38.818Z,0.53
2018-12-22T04:30:06.933Z,0.40
2018-12-22T04:32:34.924Z,0.20
2018-12-22T04:35:02.947Z,0.30
2018-12-22T04:37:30.924Z,0.30
2018-12-22T04:39:58.721Z,0.60
2018-12-22T04:42:26.686Z,0.50
2018-12-22T04:44:55.355Z,0.40
2018-12-22T04:47:23.238Z,0.30
2018-12-22T04:49:50.690Z,0.60
2018-12-22T04:52:18.134Z,0.20
2018-12-22T04:54:45.646Z,0.47
2018-12-22T04:57:13.108Z,0.40
2018-12-22T04:59:43.210Z,0.20
2018-12-22T05:02:11.224Z,0.40
2018-12-22T05:04:42.589Z,0.37
2018-12-22T05:07:10.172Z,0.40
2018-12-22T05:09:37.692Z,0.20
2018-12-22T05:12:05.217Z,0.43
2018-12-22T05:14:32.621Z,0.53
2018-12-22T05:17:00.089Z,0.50
2018-12-22T05:19:27.726Z,0.40
2018-12-22T05:21:55.189Z,0.40
2018-12-22T05:24:22.685Z,0.70
2018-12-22T05:26:50.161Z,0.40
2018-12-22T05:29:17.644Z,0.50
2018-12-22T05:31:45.114Z,0.47
2018-12-22T05:34:12.567Z,0.47
2018-12-22T05:36:40.020Z,0.47
2018-12-22T05:39:07.465Z,0.43
2018-12-22T05:41:35.326Z,0.50
2018-12-22T05:44:04.072Z,0.60
2018-12-22T05:46:31.512Z,0.70
2018-12-22T05:48:59.020Z,0.20
2018-12-22T05:51:29.870Z,0.50
2018-12-22T05:53:57.329Z,0.20
2018-12-22T05:56:24.772Z,0.40
2018-12-22T05:58:52.318Z,0.13
2018-12-22T06:01:19.833Z,0.30
2018-12-22T06:03:47.299Z,0.20
2018-12-22T06:06:16.371Z,0.30
2018-12-22T06:08:43.826Z,0.30
2018-12-22T06:11:17.650Z,0.20
2018-12-22T06:16:44.210Z,0.20
2018-12-22T06:19:11.689Z,0.30
2018-12-22T06:21:39.157Z,0.20
2018-12-22T06:24:07.006Z,0.40
2018-12-22T06:26:34.438Z,0.20
2018-12-22T06:29:01.920Z,0.33
2018-12-22T06:31:32.671Z,0.23
2018-12-22T06:34:05.938Z,0.20
2018-12-22T06:36:39.732Z,0.20
2018-12-22T06:39:10.873Z,0.20
2018-12-22T06:41:38.345Z,0.50
2018-12-22T06:44:05.814Z,0.37
2018-12-22T06:46:33.259Z,0.10
2018-12-22T06:49:00.763Z,0.20
2018-12-22T06:51:28.335Z,0.10
2018-12-22T06:53:55.912Z,0.10
2018-12-22T06:56:23.479Z,0.10
2018-12-22T06:58:50.918Z,0.20
2018-12-22T07:01:18.363Z,0.40
2018-12-22T07:03:45.781Z,0.10
2018-12-22T07:06:13.207Z,0.50
2018-12-22T07:08:40.717Z,0.30
2018-12-22T07:11:08.227Z,0.27
2018-12-22T07:16:35.734Z,0.20
2018-12-22T07:19:03.283Z,0.30
2018-12-22T07:21:30.766Z,0.20
2018-12-22T07:23:58.192Z,0.30
2018-12-22T07:26:25.632Z,0.17
2018-12-22T07:28:53.125Z,0.40
2018-12-22T07:31:20.987Z,0.17
2018-12-22T07:33:48.554Z,0.33
2018-12-22T07:36:16.293Z,0.43
2018-12-22T07:38:43.702Z,0.30
2018-12-22T07:41:11.193Z,0.20
2018-12-22T07:43:38.781Z,0.30
2018-12-22T07:46:06.353Z,0.20
2018-12-22T07:48:34.039Z,0.33
2018-12-22T07:51:01.703Z,0.70
2018-12-22T07:53:29.167Z,0.27
2018-12-22T07:55:56.891Z,0.23
2018-12-22T07:58:24.399Z,0.60
2018-12-22T08:00:51.925Z,0.63
2018-12-22T08:03:19.390Z,0.30
2018-12-22T08:05:46.851Z,0.40
2018-12-22T08:08:14.306Z,0.30
2018-12-22T08:10:41.735Z,0.50
2018-12-22T08:13:09.176Z,0.50
2018-12-22T08:15:36.634Z,0.77
2018-12-22T08:18:04.180Z,0.62
2018-12-22T08:20:31.858Z,0.93
2018-12-22T08:22:59.380Z,0.50
2018-12-22T08:25:26.908Z,0.60
2018-12-22T08:27:54.427Z,0.43
2018-12-22T08:30:22.018Z,0.40
2018-12-22T08:32:49.491Z,0.30
2018-12-22T08:35:17.017Z,0.60
2018-12-22T08:37:44.540Z,0.67
2018-12-22T08:40:12.035Z,0.93
2018-12-22T08:42:39.519Z,0.73
2018-12-22T08:45:07.533Z,0.47
2018-12-22T08:47:35.057Z,0.60
2018-12-22T08:50:08.945Z,0.53
2018-12-22T08:52:32.243Z,0.40
2018-12-22T08:54:59.748Z,0.70
2018-12-22T08:57:27.235Z,0.63
2018-12-22T08:59:54.731Z,0.43
2018-12-22T09:02:22.321Z,0.50
2018-12-22T09:04:50.101Z,0.50
2018-12-22T09:07:17.643Z,0.70
2018-12-22T09:09:45.148Z,0.30
2018-12-22T09:12:12.662Z,0.40
2018-12-22T09:14:40.139Z,0.87
2018-12-22T09:17:07.630Z,0.30
2018-12-22T09:19:35.210Z,1.03
2018-12-22T09:22:02.862Z,0.83
2018-12-22T09:24:30.362Z,0.87
2018-12-22T09:26:57.831Z,0.80
2018-12-22T09:29:25.271Z,0.83
2018-12-22T09:31:52.871Z,0.60
2018-12-22T09:34:20.581Z,1.00
2018-12-22T09:36:48.093Z,0.60
2018-12-22T09:39:15.598Z,1.17
2018-12-22T09:41:43.067Z,0.77
2018-12-22T09:44:10.613Z,0.53
2018-12-22T09:46:38.098Z,1.33
2018-12-22T09:49:05.626Z,1.27
2018-12-22T09:51:33.159Z,0.90
2018-12-22T09:54:00.698Z,1.10
2018-12-22T09:56:28.278Z,1.10
2018-12-22T09:58:55.757Z,0.90
2018-12-22T10:01:23.281Z,0.80
2018-12-22T10:03:50.785Z,1.37
2018-12-22T10:06:18.675Z,1.00
2018-12-22T10:08:46.383Z,0.57
2018-12-22T10:11:13.858Z,0.80
2018-12-22T10:13:41.408Z,1.90
2018-12-22T10:16:09.988Z,1.37
2018-12-22T10:18:37.483Z,1.00
2018-12-22T10:21:04.973Z,1.17
2018-12-22T10:23:32.575Z,1.13
2018-12-22T10:26:00.779Z,1.00
2018-12-22T10:28:29.112Z,0.73
2018-12-22T10:30:56.995Z,0.43
2018-12-22T10:33:24.471Z,0.80
2018-12-22T10:35:51.979Z,0.83
2018-12-22T10:38:19.482Z,0.40
2018-12-22T10:40:47.042Z,0.30
2018-12-22T10:43:15.200Z,0.37
2018-12-22T10:45:42.724Z,0.40
2018-12-22T10:48:10.321Z,0.67
2018-12-22T10:50:37.868Z,1.50
2018-12-22T10:53:05.551Z,1.30
2018-12-22T10:55:33.120Z,1.30
2018-12-22T10:58:00.656Z,1.30
2018-12-22T11:00:28.892Z,1.17
2018-12-22T11:02:56.333Z,1.00
2018-12-22T11:05:23.818Z,1.13
2018-12-22T11:07:51.332Z,1.33
2018-12-22T11:10:21.946Z,0.90
2018-12-22T11:12:49.832Z,0.87
2018-12-22T11:15:17.409Z,1.03
2018-12-22T11:17:44.880Z,1.50
2018-12-22T11:20:12.447Z,1.13
2018-12-22T11:22:39.933Z,1.57
2018-12-22T11:25:25.838Z,1.00
2018-12-22T11:27:53.538Z,0.93
2018-12-22T11:30:25.023Z,0.67
2018-12-22T11:32:52.459Z,1.33
2018-12-22T11:35:19.934Z,2.87
2018-12-22T11:37:47.473Z,1.73
2018-12-22T11:40:15.020Z,0.70
2018-12-22T11:42:47.616Z,1.20
2018-12-22T11:45:12.017Z,1.20
2018-12-22T11:47:43.638Z,1.20
2018-12-22T11:50:18.262Z,1.30
2018-12-22T11:52:45.756Z,1.40
2018-12-22T11:55:13.268Z,2.23
2018-12-22T11:57:40.876Z,1.93
2018-12-22T12:00:09.818Z,1.10
2018-12-22T12:05:35.747Z,1.27
2018-12-22T12:08:03.314Z,1.70
2018-12-22T12:10:30.863Z,1.43
2018-12-22T12:12:58.484Z,1.30
2018-12-22T12:15:30.220Z,1.47
2018-12-22T12:18:18.715Z,1.47
2018-12-22T12:20:46.181Z,1.30
2018-12-22T12:23:13.664Z,1.40
2018-12-22T12:25:41.211Z,2.37
2018-12-22T12:28:08.800Z,1.87
2018-12-22T12:30:36.336Z,1.20
2018-12-22T12:33:03.905Z,1.20
2018-12-22T12:35:31.382Z,1.03
2018-12-22T12:37:59.932Z,1.23
2018-12-22T12:40:27.387Z,0.97
2018-12-22T12:42:54.895Z,1.57
2018-12-22T12:45:22.424Z,3.30
2018-12-22T12:47:49.906Z,3.20
2018-12-22T12:50:19.426Z,2.90
2018-12-22T12:52:47.082Z,2.07
2018-12-22T12:55:14.646Z,1.57
2018-12-22T12:57:42.536Z,1.53
2018-12-22T13:00:12.473Z,2.00
2018-12-22T13:02:39.998Z,2.07
2018-12-22T13:05:08.663Z,2.00
2018-12-22T13:07:36.281Z,2.33
2018-12-22T13:10:04.931Z,1.97
2018-12-22T13:12:39.106Z,1.87
2018-12-22T13:15:09.150Z,1.83
2018-12-22T13:17:36.695Z,2.10
2018-12-22T13:20:05.696Z,1.90
2018-12-22T13:22:33.167Z,2.27
2018-12-22T13:25:00.869Z,1.20
2018-12-22T13:27:28.581Z,1.73
2018-12-22T13:29:56.241Z,1.00
2018-12-22T13:32:24.313Z,1.87
2018-12-22T13:34:51.847Z,1.50
2018-12-22T13:37:20.517Z,2.17
2018-12-22T13:39:54.274Z,2.10
2018-12-22T13:42:21.721Z,3.00
2018-12-22T13:44:49.263Z,3.07
2018-12-22T13:47:16.907Z,2.67
2018-12-22T13:49:44.596Z,3.03
2018-12-22T13:52:13.013Z,2.00
2018-12-22T13:54:40.551Z,2.37
2018-12-22T13:57:08.168Z,2.87
2018-12-22T13:59:35.618Z,3.23
2018-12-22T14:02:04.998Z,3.27
2018-12-22T14:04:34.500Z,7.67
2018-12-22T14:07:03.396Z,2.90
2018-12-22T14:09:30.899Z,1.50
2018-12-22T14:11:58.489Z,1.70
2018-12-22T14:14:30.950Z,2.07
2018-12-22T14:17:05.311Z,2.70
2018-12-22T14:19:33.000Z,1.90
2018-12-22T14:22:00.628Z,1.33
2018-12-22T14:24:33.037Z,1.40
2018-12-22T14:30:01.648Z,1.93
2018-12-22T14:32:29.100Z,1.33
2018-12-22T14:35:04.049Z,1.03
2018-12-22T14:37:31.499Z,1.30
2018-12-22T14:39:58.983Z,1.20
2018-12-22T14:42:26.571Z,0.97
2018-12-22T14:44:54.112Z,1.00
2018-12-22T14:47:21.539Z,0.97
2018-12-22T14:49:49.069Z,1.13
2018-12-22T14:52:16.685Z,1.03
2018-12-22T14:54:44.217Z,0.90
2018-12-22T14:57:18.430Z,1.30
2018-12-22T14:59:46.023Z,4.23
2018-12-22T15:02:13.693Z,2.97
2018-12-22T15:04:41.171Z,2.47
2018-12-22T15:07:08.675Z,1.43
2018-12-22T15:09:36.126Z,1.80
2018-12-22T15:12:03.699Z,1.37
2018-12-22T15:14:31.150Z,1.80
2018-12-22T15:16:58.721Z,1.53
2018-12-22T15:19:26.428Z,1.03
2018-12-22T15:21:56.479Z,1.00
2018-12-22T15:24:23.958Z,1.20
2018-12-22T15:26:51.447Z,0.63
2018-12-22T15:29:19.028Z,0.87
2018-12-22T15:31:46.561Z,1.03
2018-12-22T15:34:14.065Z,1.03
2018-12-22T15:36:41.582Z,1.17
2018-12-22T15:39:09.053Z,0.67
2018-12-22T15:41:36.665Z,0.67
2018-12-22T15:44:04.139Z,1.33
2018-12-22T15:46:31.606Z,1.03
2018-12-22T15:48:59.182Z,2.67
2018-12-22T15:51:26.753Z,0.83
2018-12-22T15:53:54.225Z,0.87
2018-12-22T15:56:21.676Z,1.13
2018-12-22T15:58:49.177Z,1.03
2018-12-22T16:01:16.663Z,3.70
2018-12-22T16:03:44.178Z,5.00
2018-12-22T16:06:11.774Z,1.67
2018-12-22T16:08:39.269Z,0.87
2018-12-22T16:11:06.775Z,1.20
2018-12-22T16:13:34.284Z,1.43
2018-12-22T16:16:01.807Z,2.03
2018-12-22T16:18:29.351Z,1.63
2018-12-22T16:20:56.914Z,16.20
2018-12-22T16:23:24.947Z,9.53
2018-12-22T16:25:52.459Z,19.53
2018-12-22T16:28:22.887Z,14.53
2018-12-22T16:30:54.246Z,39.27
2018-12-22T16:33:21.826Z,22.43
2018-12-22T16:35:49.485Z,19.93
2018-12-22T16:38:17.031Z,87.27
2018-12-22T16:40:44.509Z,30.40
2018-12-22T16:43:13.368Z,29.70
2018-12-22T16:45:45.649Z,26.73
2018-12-22T16:48:13.182Z,8.13
2018-12-22T16:50:42.475Z,33.80
2018-12-22T16:53:09.918Z,15.17
2018-12-22T16:55:37.386Z,28.00
2018-12-22T16:58:08.779Z,53.20
2018-12-22T17:00:42.000Z,72.90
2018-12-22T17:03:10.940Z,27.73
2018-12-22T17:05:38.908Z,13.23
2018-12-22T17:08:06.420Z,8.20
2018-12-22T17:10:37.977Z,5.07
2018-12-22T17:13:12.289Z,2.40
2018-12-22T17:15:44.483Z,1.13
2018-12-22T17:18:12.177Z,4.53
2018-12-22T17:20:39.986Z,1.47
2018-12-22T17:23:16.228Z,1.73
2018-12-22T17:25:53.405Z,1.47
2018-12-22T17:28:28.490Z,1.30
2018-12-22T17:31:12.388Z,2.07
2018-12-22T17:33:46.343Z,0.90
2018-12-22T17:36:33.001Z,1.77
2018-12-22T17:39:00.520Z,1.27
2018-12-22T17:41:28.024Z,1.07
2018-12-22T17:43:56.573Z,1.07
2018-12-22T17:52:31.962Z,0.77
2018-12-22T17:57:59.077Z,1.03
2018-12-22T18:00:26.638Z,0.90
2018-12-22T18:02:54.111Z,1.07
2018-12-22T18:05:21.663Z,0.87
2018-12-22T18:07:49.131Z,1.10
2018-12-22T18:10:16.667Z,1.03
2018-12-22T18:12:44.146Z,0.63
2018-12-22T18:15:16.268Z,0.60
2018-12-22T18:17:44.028Z,1.03
2018-12-22T18:20:11.632Z,1.20
2018-12-22T18:22:39.096Z,0.80
2018-12-22T18:25:09.124Z,1.47
2018-12-22T18:27:36.557Z,1.33
2018-12-22T18:30:05.950Z,1.07
2018-12-22T18:32:33.446Z,8.43
2018-12-22T18:35:07.878Z,33.93
2018-12-22T18:37:35.412Z,3.67
2018-12-22T18:40:10.901Z,15.67
2018-12-22T18:42:55.394Z,4.50
2018-12-22T18:45:29.341Z,6.83
2018-12-22T18:47:56.915Z,2.50
2018-12-22T18:50:25.817Z,2.47
2018-12-22T18:52:53.350Z,2.90
2018-12-22T18:55:23.086Z,2.23
2018-12-22T18:57:53.003Z,1.63
2018-12-22T19:00:22.088Z,1.43
2018-12-22T19:02:50.147Z,1.33
2018-12-22T19:05:18.767Z,1.17
2018-12-22T19:10:55.536Z,1.80
2018-12-22T19:13:23.016Z,1.23
2018-12-22T19:15:50.466Z,1.10
2018-12-22T19:18:17.963Z,1.80
2018-12-22T19:20:48.095Z,2.53
2018-12-22T19:23:16.362Z,2.97
2018-12-22T19:25:43.862Z,2.57
2018-12-22T19:28:11.382Z,2.90
2018-12-22T19:30:38.917Z,3.10
2018-12-22T19:33:18.589Z,3.63
2018-12-22T19:35:46.160Z,2.23
2018-12-22T19:38:17.692Z,2.10
2018-12-22T19:40:45.687Z,1.67
2018-12-22T19:43:13.244Z,2.10
2018-12-22T19:45:40.827Z,2.20
2018-12-22T19:48:08.331Z,1.83
2018-12-22T19:50:35.760Z,1.97
2018-12-22T19:53:03.291Z,1.70
2018-12-22T19:55:30.722Z,1.70
2018-12-22T19:57:58.955Z,2.03
2018-12-22T20:00:26.560Z,1.40
2018-12-22T20:02:54.128Z,1.70
2018-12-22T20:05:27.571Z,1.80
2018-12-22T20:07:55.108Z,2.07
2018-12-22T20:10:22.626Z,2.23
2018-12-22T20:12:50.076Z,2.73
2018-12-22T20:15:17.654Z,2.93
2018-12-22T20:17:45.169Z,2.10
2018-12-22T20:20:12.918Z,2.30
2018-12-22T20:22:40.495Z,2.13
2018-12-22T20:25:08.120Z,6.37
2018-12-22T20:27:35.708Z,5.07
2018-12-22T20:30:04.001Z,2.70
2018-12-22T20:32:31.658Z,2.67
2018-12-22T20:34:59.409Z,5.50
2018-12-22T20:37:26.926Z,3.70
2018-12-22T20:39:54.536Z,2.90
2018-12-22T20:42:22.095Z,3.13
2018-12-22T20:44:49.851Z,3.30
2018-12-22T20:47:17.329Z,2.23
2018-12-22T20:49:44.881Z,2.60
2018-12-22T20:52:12.419Z,2.67
2018-12-22T20:54:40.055Z,2.87
2018-12-22T20:57:07.531Z,3.10
2018-12-22T20:59:35.364Z,4.13
2018-12-22T21:02:02.919Z,3.80
2018-12-22T21:04:30.820Z,3.50
2018-12-22T21:06:58.485Z,3.67
2018-12-22T21:09:26.021Z,2.77
2018-12-22T21:11:53.638Z,3.00
2018-12-22T21:14:21.247Z,1.67
2018-12-22T21:16:48.978Z,2.70
2018-12-22T21:19:22.907Z,1.70
2018-12-22T21:21:50.592Z,2.80
2018-12-22T21:24:18.100Z,2.30
2018-12-22T21:26:49.522Z,2.00
2018-12-22T21:29:20.767Z,1.43
2018-12-22T21:31:54.629Z,1.93
2018-12-22T21:34:28.251Z,1.93
2018-12-22T21:36:52.323Z,2.00
2018-12-22T21:39:20.191Z,1.50
2018-12-22T21:41:47.912Z,1.70
2018-12-22T21:44:16.524Z,2.80
2018-12-22T21:46:44.235Z,2.30
2018-12-22T21:49:11.778Z,1.93
2018-12-22T21:51:39.256Z,2.83
2018-12-22T21:54:08.582Z,2.30
2018-12-22T21:56:36.133Z,2.60
2018-12-22T21:59:03.879Z,1.90
2018-12-22T22:01:31.384Z,1.90
2018-12-22T22:03:59.048Z,2.50
2018-12-22T22:06:26.550Z,3.23
2018-12-22T22:08:54.144Z,2.73
2018-12-22T22:11:21.880Z,2.40
2018-12-22T22:13:49.435Z,2.03
2018-12-22T22:16:17.179Z,2.40
2018-12-22T22:18:44.883Z,2.47
2018-12-22T22:21:12.495Z,2.23
2018-12-22T22:26:38.482Z,2.90
2018-12-22T22:29:06.011Z,1.80
2018-12-22T22:31:33.466Z,2.13
2018-12-22T22:34:00.956Z,2.40
2018-12-22T22:36:28.477Z,1.50
2018-12-22T22:38:56.018Z,2.17
2018-12-22T22:41:23.624Z,2.00
2018-12-22T22:43:51.191Z,2.10
2018-12-22T22:46:18.759Z,2.13
2018-12-22T22:48:46.277Z,2.20
2018-12-22T22:51:13.976Z,1.93
2018-12-22T22:53:41.507Z,1.70
2018-12-22T22:56:10.111Z,2.60
2018-12-22T22:58:37.691Z,2.00
2018-12-22T23:01:05.166Z,2.07
2018-12-22T23:03:32.658Z,2.20
2018-12-22T23:06:00.164Z,3.03
2018-12-22T23:08:27.694Z,2.77
2018-12-22T23:10:55.302Z,2.57
2018-12-22T23:13:24.669Z,1.83
2018-12-22T23:15:52.269Z,2.37
2018-12-22T23:18:19.727Z,2.27
2018-12-22T23:20:47.181Z,2.10
2018-12-22T23:23:14.742Z,2.17
2018-12-22T23:25:42.214Z,2.07
2018-12-22T23:28:09.714Z,2.30
2018-12-22T23:30:37.160Z,2.00
2018-12-22T23:36:04.531Z,2.30
2018-12-22T23:38:31.918Z,2.73
2018-12-22T23:40:59.295Z,1.73
2018-12-22T23:43:26.748Z,2.60
2018-12-22T23:45:54.309Z,3.03
2018-12-22T23:48:21.840Z,2.50
2018-12-22T23:50:49.456Z,2.37
2018-12-22T23:53:17.232Z,3.87
2018-12-22T23:55:44.801Z,4.83
2018-12-22T23:58:13.296Z,2.60
